Dades meteomassalio
Diari Summary for Juliol 8, 2017 Units:  Metric    English   Both
« Previous Day
Next Day »
Diari Semanal Mensual Anual Personalitzat
  Maxima: Minima: Mijana:
Temperatura: 30.0 °C 18.2 °C 24.3 °C
Rosada: 21.2 °C 9.8 °C 15.5 °C
Humitat: 90 % 34 % 61 %
Velocitat del vent: 66.6 km/h 0.0 km/h 7.8 km/h
Racha vent: 66.6 km/h - -
Vent:- - SE
Pressio: 1016.5 hPa 1009.4 hPa -
Pluja: 23.9 mm    
Historical Graphs
 
 
Tabular Data for Juliol 8, 2017
Time Temperature Dew Point Pressure Wind Wind Speed Wind Gust Humidity Rainfall Rate (Hourly) solar Conditions
00:04 27.8 °C 10.9 °C 1015.1 hPa Calm     35 % 0.0 mm 0.0 W/m2 CLR
00:09 27.8 °C 10.5 °C 1015.1 hPa Calm     34 % 0.0 mm 0.0 W/m2 CLR
00:14 27.8 °C 10.5 °C 1015.5 hPa SW 9.7 km/h 9.7 km/h 34 % 0.0 mm 0.0 W/m2 CLR
00:19 27.7 °C 10.4 °C 1015.8 hPa West 7.4 km/h 7.4 km/h 34 % 0.0 mm 0.0 W/m2 CLR
00:24 27.6 °C 10.3 °C 1016.5 hPa West 13.0 km/h 13.0 km/h 34 % 0.0 mm 0.0 W/m2 CLR
00:29 27.5 °C 10.7 °C 1016.5 hPa WNW 13.0 km/h 13.0 km/h 35 % 0.0 mm 0.0 W/m2 CLR
00:34 27.4 °C 10.1 °C 1016.1 hPa West 11.1 km/h 11.1 km/h 34 % 0.0 mm 0.0 W/m2 CLR
00:39 27.3 °C 10.1 °C 1016.1 hPa Calm     34 % 0.0 mm 0.0 W/m2 CLR
00:44 27.1 °C 10.3 °C 1016.1 hPa Calm     35 % 0.0 mm 0.0 W/m2 CLR
00:49 27.0 °C 10.7 °C 1016.1 hPa Calm     36 % 0.0 mm 0.0 W/m2 CLR
00:54 26.8 °C 10.5 °C 1015.8 hPa Calm     36 % 0.0 mm 0.0 W/m2 CLR
00:59 26.7 °C 10.8 °C 1015.1 hPa NE 8.0 km/h 8.0 km/h 37 % 0.0 mm 0.0 W/m2 CLR
01:04 26.5 °C 10.6 °C 1014.8 hPa ENE 7.4 km/h 7.4 km/h 37 % 0.0 mm 0.0 W/m2 CLR
01:09 26.3 °C 10.5 °C 1014.4 hPa NE 11.1 km/h 11.1 km/h 37 % 0.0 mm 0.0 W/m2 CLR
01:14 26.3 °C 10.4 °C 1014.1 hPa NNE 11.1 km/h 11.1 km/h 37 % 0.0 mm 0.0 W/m2 CLR
01:19 26.2 °C 10.4 °C 1014.1 hPa North 9.7 km/h 9.7 km/h 37 % 0.0 mm 0.0 W/m2 CLR
01:24 26.2 °C 10.8 °C 1014.4 hPa NNE 6.4 km/h 6.4 km/h 38 % 0.0 mm 0.0 W/m2 CLR
01:29 26.2 °C 11.2 °C 1014.8 hPa Calm     39 % 0.0 mm 0.0 W/m2 CLR
01:34 26.1 °C 11.1 °C 1014.8 hPa Calm     39 % 0.0 mm 0.0 W/m2 CLR
01:39 26.0 °C 11.3 °C 1014.8 hPa Calm     40 % 0.0 mm 0.0 W/m2 CLR
01:44 25.8 °C 11.2 °C 1014.8 hPa Calm     40 % 0.0 mm 0.0 W/m2 CLR
01:50 25.7 °C 11.1 °C 1015.1 hPa Calm     40 % 0.0 mm 0.0 W/m2 CLR
01:55 25.6 °C 11.4 °C 1015.1 hPa Calm     41 % 0.0 mm 0.0 W/m2 CLR
02:00 25.5 °C 10.5 °C 1015.1 hPa Calm     39 % 0.0 mm 0.0 W/m2 CLR
02:05 25.5 °C 11.3 °C 1014.8 hPa Calm     41 % 0.0 mm 0.0 W/m2 CLR
02:10 25.4 °C 11.2 °C 1014.8 hPa Calm     41 % 0.0 mm 0.0 W/m2 CLR
02:15 25.6 °C 10.9 °C 1014.8 hPa Calm     40 % 0.0 mm 0.0 W/m2 CLR
02:20 25.6 °C 11.0 °C 1014.8 hPa Calm     40 % 0.0 mm 0.0 W/m2 CLR
02:25 25.6 °C 10.9 °C 1014.8 hPa Calm     40 % 0.0 mm 0.0 W/m2 CLR
02:30 25.5 °C 10.9 °C 1014.4 hPa Calm     40 % 0.0 mm 0.0 W/m2 CLR
02:35 25.4 °C 10.8 °C 1014.4 hPa Calm     40 % 0.0 mm 0.0 W/m2 CLR
02:40 25.4 °C 10.8 °C 1014.1 hPa Calm     40 % 0.0 mm 0.0 W/m2 CLR
02:45 25.4 °C 11.2 °C 1014.1 hPa Calm     41 % 0.0 mm 0.0 W/m2 CLR
02:50 25.2 °C 11.0 °C 1014.1 hPa Calm     41 % 0.0 mm 0.0 W/m2 CLR
02:55 24.9 °C 10.8 °C 1014.4 hPa Calm     41 % 0.0 mm 0.0 W/m2 CLR
03:00 24.9 °C 10.8 °C 1014.1 hPa Calm     41 % 0.0 mm 0.0 W/m2 CLR
03:05 25.1 °C 10.9 °C 1014.1 hPa Calm     41 % 0.0 mm 0.0 W/m2 CLR
03:10 25.1 °C 10.9 °C 1014.1 hPa Calm     41 % 0.0 mm 0.0 W/m2 CLR
03:15 25.2 °C 11.1 °C 1014.4 hPa Calm     41 % 0.0 mm 0.0 W/m2 CLR
03:20 25.2 °C 11.0 °C 1014.1 hPa Calm     41 % 0.0 mm 0.0 W/m2 CLR
03:25 25.2 °C 11.0 °C 1014.1 hPa Calm     41 % 0.0 mm 0.0 W/m2 CLR
03:30 25.2 °C 11.0 °C 1014.1 hPa Calm     41 % 0.0 mm 0.0 W/m2 CLR
03:35 25.2 °C 10.7 °C 1013.8 hPa SE 5.6 km/h 5.6 km/h 40 % 0.0 mm 0.0 W/m2 CLR
03:40 25.4 °C 10.4 °C 1013.8 hPa ENE 5.6 km/h   39 % 0.0 mm 0.0 W/m2 CLR
03:45 25.3 °C 10.8 °C 1013.8 hPa Calm     40 % 0.0 mm 0.0 W/m2 CLR
03:50 25.2 °C 10.6 °C 1013.8 hPa Calm     40 % 0.0 mm 0.0 W/m2 CLR
03:55 25.2 °C 10.2 °C 1013.4 hPa Calm     39 % 0.0 mm 0.0 W/m2 CLR
04:00 25.2 °C 10.3 °C 1013.1 hPa Calm     39 % 0.0 mm 0.0 W/m2 CLR
04:05 25.1 °C 10.2 °C 1012.8 hPa Calm     39 % 0.0 mm 0.0 W/m2 CLR
04:10 25.1 °C 10.2 °C 1012.8 hPa Calm     39 % 0.0 mm 0.0 W/m2 CLR
04:15 24.8 °C 10.7 °C 1012.8 hPa Calm     41 % 0.0 mm 0.0 W/m2 CLR
04:20 24.7 °C 9.8 °C 1012.4 hPa Calm     39 % 0.0 mm 0.0 W/m2 CLR
04:25 24.8 °C 10.6 °C 1012.4 hPa Calm     41 % 0.0 mm 0.0 W/m2 CLR
04:30 24.8 °C 11.0 °C 1012.1 hPa Calm     42 % 0.0 mm 0.0 W/m2 CLR
04:35 24.6 °C 11.2 °C 1012.4 hPa Calm     43 % 0.0 mm 0.0 W/m2 CLR
04:40 24.3 °C 10.9 °C 1012.1 hPa Calm     43 % 0.0 mm 0.0 W/m2 CLR
04:45 24.1 °C 10.3 °C 1012.1 hPa NE 6.4 km/h 6.4 km/h 42 % 0.0 mm 0.0 W/m2 CLR
04:50 24.1 °C 10.3 °C 1012.1 hPa Calm     42 % 0.0 mm 0.0 W/m2 CLR
04:55 24.2 °C 10.4 °C 1011.7 hPa Calm     42 % 0.0 mm 0.0 W/m2 CLR
05:00 24.3 °C 10.6 °C 1011.7 hPa Calm     42 % 0.0 mm 0.0 W/m2 CLR
05:05 24.4 °C 11.1 °C 1011.7 hPa Calm     43 % 0.0 mm 0.0 W/m2 CLR
05:10 24.4 °C 10.3 °C 1011.4 hPa Calm     41 % 0.0 mm 0.0 W/m2 CLR
05:15 24.5 °C 10.0 °C 1011.4 hPa ESE 1.9 km/h   40 % 0.0 mm 0.0 W/m2 CLR
05:20 24.7 °C 10.2 °C 1011.7 hPa Calm     40 % 0.0 mm 0.0 W/m2 CLR
05:25 24.8 °C 9.9 °C 1011.7 hPa Calm     39 % 0.0 mm 0.0 W/m2 CLR
05:30 24.8 °C 9.9 °C 1011.4 hPa Calm     39 % 0.0 mm 0.0 W/m2 CLR
05:35 24.8 °C 10.3 °C 1011.4 hPa East 11.1 km/h 11.1 km/h 40 % 0.0 mm 0.0 W/m2 CLR
05:40 24.9 °C 10.4 °C 1011.4 hPa ENE 1.9 km/h 1.9 km/h 40 % 0.0 mm 0.0 W/m2 CLR
05:45 24.9 °C 10.7 °C 1011.4 hPa ESE 5.6 km/h 5.6 km/h 41 % 0.0 mm 0.0 W/m2 CLR
05:50 24.9 °C 10.7 °C 1011.1 hPa East 3.7 km/h 3.7 km/h 41 % 0.0 mm 0.0 W/m2 CLR
05:55 24.9 °C 10.7 °C 1011.4 hPa Calm     41 % 0.0 mm 0.0 W/m2 CLR
06:00 24.8 °C 10.6 °C 1011.4 hPa Calm     41 % 0.0 mm 0.0 W/m2 CLR
06:05 24.7 °C 10.9 °C 1011.1 hPa ESE 5.6 km/h 5.6 km/h 42 % 0.0 mm 0.0 W/m2 CLR
06:10 24.8 °C 11.1 °C 1011.1 hPa ESE 14.8 km/h 14.8 km/h 42 % 0.0 mm 0.0 W/m2 CLR
06:12 24.9 °C 11.1 °C 1011.1 hPa ESE 9.7 km/h 9.7 km/h 42 % 0.0 mm 0.0 W/m2 CLR
06:17 24.9 °C 11.2 °C 1011.1 hPa SE 9.3 km/h 9.3 km/h 42 % 0.0 mm 0.0 W/m2 CLR
06:22 24.9 °C 11.1 °C 1011.1 hPa SE 11.3 km/h 11.3 km/h 42 % 0.0 mm 0.0 W/m2 CLR
06:27 24.9 °C 11.2 °C 1011.1 hPa Calm     42 % 0.0 mm 0.0 W/m2 OVC
06:32 24.8 °C 11.1 °C 1011.1 hPa Calm     42 % 0.0 mm 0.0 W/m2 OVC
06:37 24.8 °C 11.0 °C 1011.1 hPa Calm     42 % 0.0 mm 0.0 W/m2 OVC
06:42 24.7 °C 11.3 °C 1011.1 hPa Calm     43 % 0.0 mm 0.0 W/m2 OVC
06:47 24.6 °C 11.6 °C 1011.1 hPa Calm     44 % 0.0 mm 0.0 W/m2 OVC
06:52 24.3 °C 13.2 °C 1011.4 hPa Calm     50 % 0.0 mm 5.0 W/m2 OVC
06:57 24.1 °C 12.1 °C 1011.1 hPa Calm     47 % 0.0 mm 12.0 W/m2 BKN
07:02 24.0 °C 12.0 °C 1011.1 hPa Calm     47 % 0.0 mm 19.0 W/m2 BKN
07:07 23.9 °C 12.2 °C 1011.1 hPa Calm     48 % 0.0 mm 25.0 W/m2 BKN
07:12 23.8 °C 14.2 °C 1011.1 hPa Calm     55 % 0.0 mm 30.0 W/m2 BKN
07:17 23.2 °C 14.2 °C 1011.1 hPa Calm     57 % 0.0 mm 35.0 W/m2 BKN
07:22 22.7 °C 13.5 °C 1011.1 hPa Calm     56 % 0.0 mm 35.0 W/m2 BKN
07:27 22.4 °C 13.2 °C 1011.4 hPa Calm     56 % 0.0 mm 37.0 W/m2 BKN
07:32 22.3 °C 13.6 °C 1011.4 hPa Calm     58 % 0.0 mm 42.0 W/m2 BKN
07:37 22.1 °C 13.7 °C 1011.1 hPa Calm     59 % 0.0 mm 49.0 W/m2 BKN
07:42 21.8 °C 13.4 °C 1011.1 hPa Calm     59 % 0.0 mm 58.0 W/m2 SCT
07:47 21.6 °C 13.3 °C 1011.1 hPa Calm     59 % 0.0 mm 65.0 W/m2 SCT
07:52 21.5 °C 13.4 °C 1011.1 hPa Calm     60 % 0.0 mm 77.0 W/m2 FEW
07:57 21.3 °C 13.5 °C 1011.1 hPa Calm     61 % 0.0 mm 67.0 W/m2 FEW
08:02 21.3 °C 13.8 °C 1011.1 hPa Calm     62 % 0.0 mm 62.0 W/m2 FEW
08:07 21.3 °C 14.0 °C 1011.1 hPa Calm     63 % 0.0 mm 62.0 W/m2 SCT
08:13 21.4 °C 13.3 °C 1011.1 hPa ESE 1.9 km/h   60 % 0.0 mm 65.0 W/m2 SCT
08:17 21.8 °C 14.0 °C 1011.1 hPa Calm     61 % 0.0 mm 76.0 W/m2 FEW
08:22 21.9 °C 14.3 °C 1011.1 hPa Calm     62 % 0.0 mm 83.0 W/m2 FEW
08:27 22.0 °C 13.3 °C 1011.4 hPa SW 5.6 km/h   58 % 0.0 mm 104.0 W/m2 FEW
08:32 22.3 °C 13.9 °C 1011.4 hPa Calm     59 % 0.0 mm 111.0 W/m2 CLR
08:38 22.6 °C 12.6 °C 1011.4 hPa Calm     53 % 0.0 mm 137.0 W/m2 CLR
08:39 22.7 °C 12.3 °C 1011.7 hPa Calm     52 % 0.0 mm 146.0 W/m2 CLR
08:44 23.4 °C 12.7 °C 1011.7 hPa Calm     51 % 0.0 mm 190.0 W/m2 CLR
08:49 23.7 °C 13.3 °C 1011.7 hPa Calm     52 % 0.0 mm 130.0 W/m2 CLR
08:54 24.3 °C 14.1 °C 1011.7 hPa SSE 13.0 km/h 13.0 km/h 53 % 0.0 mm 123.0 W/m2 CLR
08:59 24.9 °C 14.7 °C 1011.7 hPa South 16.7 km/h 16.7 km/h 53 % 0.0 mm 137.0 W/m2 CLR
09:04 25.1 °C 14.8 °C 1011.7 hPa SSE 22.2 km/h 22.2 km/h 53 % 0.0 mm 134.0 W/m2 CLR
09:09 25.2 °C 15.6 °C 1011.7 hPa South 24.1 km/h 24.1 km/h 55 % 0.0 mm 155.0 W/m2 CLR
09:14 25.3 °C 15.7 °C 1011.7 hPa SE 14.8 km/h 14.8 km/h 55 % 0.0 mm 188.0 W/m2 CLR
09:19 25.3 °C 15.9 °C 1011.7 hPa SSE 27.8 km/h 27.8 km/h 56 % 0.0 mm 313.0 W/m2 CLR
09:24 25.5 °C 16.1 °C 1011.7 hPa SE 24.1 km/h 24.1 km/h 56 % 0.0 mm 278.0 W/m2 CLR
09:29 25.5 °C 16.3 °C 1011.7 hPa SSE 24.1 km/h 24.1 km/h 57 % 0.0 mm 241.0 W/m2 CLR
09:34 25.4 °C 16.3 °C 1012.1 hPa SSE 20.4 km/h 20.4 km/h 57 % 0.0 mm 255.0 W/m2 CLR
09:39 25.4 °C 16.6 °C 1012.1 hPa SSE 18.5 km/h 18.5 km/h 58 % 0.0 mm 287.0 W/m2 CLR
09:44 25.6 °C 16.7 °C 1012.1 hPa South 20.4 km/h 20.4 km/h 58 % 0.0 mm 397.0 W/m2 CLR
09:49 25.6 °C 16.7 °C 1012.1 hPa SSE 24.1 km/h 24.1 km/h 58 % 0.0 mm 450.0 W/m2 CLR
09:54 25.8 °C 16.9 °C 1012.4 hPa SSE 12.9 km/h 12.9 km/h 58 % 0.0 mm 476.0 W/m2 CLR
09:59 26.1 °C 16.9 °C 1012.1 hPa South 18.5 km/h 18.5 km/h 57 % 0.0 mm 490.0 W/m2 CLR
10:04 26.1 °C 16.9 °C 1012.4 hPa SE 11.1 km/h 11.1 km/h 57 % 0.0 mm 529.0 W/m2 CLR
10:09 26.4 °C 16.9 °C 1012.4 hPa Calm     56 % 0.0 mm 571.0 W/m2 CLR
10:14 26.7 °C 16.9 °C 1012.4 hPa ESE 9.3 km/h 9.3 km/h 55 % 0.0 mm 601.0 W/m2 CLR
10:19 26.8 °C 17.1 °C 1012.1 hPa South 11.1 km/h 11.1 km/h 55 % 0.0 mm 649.0 W/m2 CLR
10:24 27.1 °C 17.2 °C 1012.1 hPa ESE 11.1 km/h 11.1 km/h 55 % 0.0 mm 668.0 W/m2 CLR
10:29 27.3 °C 17.2 °C 1012.4 hPa SE 14.8 km/h 14.8 km/h 54 % 0.0 mm 735.0 W/m2 CLR
10:34 27.1 °C 17.0 °C 1012.4 hPa ESE 11.1 km/h 11.1 km/h 54 % 0.0 mm 693.0 W/m2 CLR
10:39 27.4 °C 16.7 °C 1012.4 hPa SSW 14.8 km/h 14.8 km/h 52 % 0.0 mm 714.0 W/m2 CLR
10:44 27.4 °C 17.0 °C 1012.4 hPa Calm     53 % 0.0 mm 244.0 W/m2 CLR
10:49 27.3 °C 16.9 °C 1012.4 hPa SSE 7.4 km/h 7.4 km/h 53 % 0.0 mm 320.0 W/m2 CLR
10:54 27.2 °C 16.8 °C 1012.4 hPa Calm     53 % 0.0 mm 139.0 W/m2 CLR
10:59 27.0 °C 16.9 °C 1012.4 hPa East 6.4 km/h 6.4 km/h 54 % 0.0 mm 160.0 W/m2 CLR
11:04 26.9 °C 16.8 °C 1012.4 hPa SE 13.0 km/h 13.0 km/h 54 % 0.0 mm 264.0 W/m2 CLR
11:09 26.8 °C 16.7 °C 1012.4 hPa Calm     54 % 0.0 mm 246.0 W/m2 CLR
11:14 26.9 °C 16.8 °C 1012.4 hPa Calm     54 % 0.0 mm 281.0 W/m2 CLR
11:19 27.2 °C 17.1 °C 1012.4 hPa Calm     54 % 0.0 mm 851.0 W/m2 CLR
11:24 27.3 °C 16.9 °C 1012.4 hPa East 7.4 km/h 7.4 km/h 53 % 0.0 mm 234.0 W/m2 CLR
11:29 27.4 °C 17.3 °C 1012.4 hPa Calm     54 % 0.0 mm 276.0 W/m2 CLR
11:34 27.8 °C 17.7 °C 1012.4 hPa ESE 14.8 km/h 14.8 km/h 54 % 0.0 mm 847.0 W/m2 CLR
11:39 28.2 °C 18.1 °C 1012.1 hPa East 11.1 km/h 11.1 km/h 54 % 0.0 mm 786.0 W/m2 CLR
11:44 28.3 °C 18.1 °C 1012.1 hPa SSE 18.5 km/h 18.5 km/h 54 % 0.0 mm 819.0 W/m2 CLR
11:49 28.3 °C 18.1 °C 1012.1 hPa SE 24.1 km/h 24.1 km/h 54 % 0.0 mm 831.0 W/m2 CLR
11:55 28.1 °C 17.6 °C 1011.7 hPa East 20.4 km/h 20.4 km/h 53 % 0.0 mm 867.0 W/m2 CLR
12:00 28.3 °C 17.8 °C 1011.7 hPa SE 24.1 km/h 24.1 km/h 53 % 0.0 mm 234.0 W/m2 CLR
12:05 28.3 °C 17.6 °C 1011.7 hPa SE 16.7 km/h 18.2 km/h 52 % 0.0 mm 902.0 W/m2 CLR
12:10 28.5 °C 18.0 °C 1011.7 hPa ESE 20.4 km/h 20.4 km/h 53 % 0.0 mm 902.0 W/m2 CLR
12:15 28.6 °C 17.8 °C 1011.7 hPa ENE 13.0 km/h 13.0 km/h 52 % 0.0 mm 914.0 W/m2 CLR
12:20 28.8 °C 17.7 °C 1011.7 hPa SE 16.7 km/h 16.7 km/h 51 % 0.0 mm 225.0 W/m2 CLR
12:25 28.4 °C 17.3 °C 1011.4 hPa ESE 16.7 km/h 16.7 km/h 51 % 0.0 mm 918.0 W/m2 CLR
12:30 28.7 °C 17.6 °C 1011.4 hPa ESE 20.4 km/h 20.4 km/h 51 % 0.0 mm 905.0 W/m2 CLR
12:35 28.7 °C 17.6 °C 1011.4 hPa SE 12.9 km/h 12.9 km/h 51 % 0.0 mm 914.0 W/m2 CLR
12:40 29.0 °C 17.5 °C 1011.4 hPa ESE 20.4 km/h 20.4 km/h 50 % 0.0 mm 905.0 W/m2 CLR
12:45 28.8 °C 17.4 °C 1011.1 hPa East 20.4 km/h 20.4 km/h 50 % 0.0 mm 960.0 W/m2 CLR
12:50 29.1 °C 17.6 °C 1011.1 hPa ESE 18.5 km/h 18.8 km/h 50 % 0.0 mm 211.0 W/m2 CLR
12:55 29.1 °C 17.9 °C 1011.1 hPa SE 18.5 km/h 18.5 km/h 51 % 0.0 mm 979.0 W/m2 CLR
13:00 29.2 °C 18.1 °C 1011.1 hPa ESE 22.2 km/h 22.2 km/h 51 % 0.0 mm 916.0 W/m2 CLR
13:05 29.2 °C 17.7 °C 1011.1 hPa ESE 27.8 km/h 27.8 km/h 50 % 0.0 mm 911.0 W/m2 CLR
13:10 29.1 °C 17.9 °C 1010.7 hPa East 25.9 km/h 25.9 km/h 51 % 0.0 mm 951.0 W/m2 CLR
13:15 29.2 °C 17.1 °C 1010.7 hPa SE 29.6 km/h 29.6 km/h 48 % 0.0 mm 911.0 W/m2 CLR
13:20 29.3 °C 17.8 °C 1010.7 hPa ESE 27.8 km/h 27.8 km/h 50 % 0.0 mm 911.0 W/m2 CLR
13:25 29.7 °C 17.8 °C 1010.7 hPa ESE 22.5 km/h 24.6 km/h 49 % 0.0 mm 928.0 W/m2 CLR
13:30 29.4 °C 17.2 °C 1010.7 hPa ESE 24.1 km/h 24.1 km/h 48 % 0.0 mm 919.0 W/m2 CLR
13:35 29.3 °C 17.2 °C 1010.4 hPa ESE 24.1 km/h 24.1 km/h 48 % 0.0 mm 912.0 W/m2 CLR
13:40 29.4 °C 17.3 °C 1010.4 hPa East 18.5 km/h 18.5 km/h 48 % 0.0 mm 918.0 W/m2 CLR
13:45 29.7 °C 16.9 °C 1010.4 hPa SE 20.4 km/h 20.8 km/h 46 % 0.0 mm 923.0 W/m2 CLR
13:50 29.9 °C 16.7 °C 1010.4 hPa SE 27.4 km/h 27.4 km/h 45 % 0.0 mm 918.0 W/m2 CLR
13:55 30.0 °C 16.8 °C 1010.0 hPa East 31.5 km/h 31.5 km/h 45 % 0.0 mm 947.0 W/m2 CLR
14:00 29.9 °C 17.7 °C 1010.0 hPa East 29.6 km/h 29.6 km/h 48 % 0.0 mm 928.0 W/m2 CLR
14:05 29.8 °C 17.6 °C 1010.0 hPa East 31.5 km/h 31.5 km/h 48 % 0.0 mm 360.0 W/m2 CLR
14:10 29.6 °C 17.7 °C 1009.7 hPa ESE 30.6 km/h 30.6 km/h 49 % 0.0 mm 1104.0 W/m2 CLR
14:15 29.4 °C 16.9 °C 1009.7 hPa ESE 25.9 km/h 25.9 km/h 47 % 0.0 mm 346.0 W/m2 CLR
14:20 29.6 °C 16.4 °C 1009.7 hPa ENE 22.2 km/h 22.2 km/h 45 % 0.0 mm 301.0 W/m2 CLR
14:25 29.6 °C 16.4 °C 1009.7 hPa SE 18.5 km/h 18.5 km/h 45 % 0.0 mm 253.0 W/m2 CLR
14:30 29.9 °C 16.4 °C 1009.7 hPa SSE 27.8 km/h 27.8 km/h 44 % 0.0 mm 383.0 W/m2 CLR
14:35 29.9 °C 17.4 °C 1009.4 hPa ESE 22.2 km/h 22.2 km/h 47 % 0.0 mm 385.0 W/m2 CLR
14:40 29.8 °C 17.3 °C 1009.4 hPa East 22.2 km/h 22.2 km/h 47 % 0.0 mm 360.0 W/m2 CLR
14:45 29.7 °C 17.6 °C 1009.4 hPa ESE 22.2 km/h 22.2 km/h 48 % 0.0 mm 403.0 W/m2 CLR
14:50 29.8 °C 17.6 °C 1009.4 hPa ESE 19.3 km/h 19.3 km/h 48 % 0.0 mm 278.0 W/m2 CLR
14:55 29.5 °C 17.7 °C 1009.4 hPa SSE 20.4 km/h 20.4 km/h 49 % 0.0 mm 193.0 W/m2 CLR
15:00 29.4 °C 17.6 °C 1009.4 hPa ESE 22.2 km/h 22.2 km/h 49 % 0.0 mm 183.0 W/m2 CLR
15:05 29.4 °C 17.2 °C 1009.4 hPa East 18.5 km/h 18.5 km/h 48 % 0.0 mm 162.0 W/m2 CLR
15:10 29.3 °C 17.1 °C 1009.4 hPa ESE 9.3 km/h 9.3 km/h 48 % 0.0 mm 97.0 W/m2 CLR
15:15 29.3 °C 16.8 °C 1009.4 hPa SSE 18.5 km/h 18.5 km/h 47 % 0.0 mm 49.0 W/m2 CLR
15:20 29.0 °C 17.2 °C 1009.7 hPa NW 20.4 km/h 20.4 km/h 49 % 0.0 mm 53.0 W/m2 SCT
15:25 27.9 °C 17.5 °C 1009.7 hPa NW 20.4 km/h 20.4 km/h 53 % 0.0 mm 40.0 W/m2 SCT
15:30 27.4 °C 18.2 °C 1009.7 hPa NNE 31.5 km/h 31.5 km/h 57 % 0.0 mm 42.0 W/m2 BKN
15:35 26.2 °C 19.1 °C 1010.0 hPa NW 22.2 km/h 22.2 km/h 65 % 1.3 mm 51.0 W/m2 RA
15:40 25.1 °C 19.2 °C 1010.0 hPa North 27.4 km/h 27.4 km/h 70 % 1.5 mm 51.0 W/m2 RA
15:45 23.9 °C 19.0 °C 1010.4 hPa North 22.2 km/h 22.2 km/h 74 % 2.0 mm 90.0 W/m2 RA
15:50 23.4 °C 19.3 °C 1010.7 hPa Calm     78 % 3.8 mm 53.0 W/m2 RA
15:51 23.3 °C 19.5 °C 1010.7 hPa Calm     79 % 4.1 mm 56.0 W/m2 RA
16:01 23.0 °C 19.9 °C 1010.4 hPa NE 11.3 km/h 11.3 km/h 83 % 5.1 mm 309.0 W/m2 CLR
16:06 23.2 °C 20.7 °C 1010.7 hPa Calm     86 % 5.1 mm 1007.0 W/m2 RA
16:11 23.1 °C 20.3 °C 1010.7 hPa Calm     84 % 5.1 mm 153.0 W/m2 CLR
16:16 23.0 °C 20.2 °C 1010.7 hPa Calm     84 % 5.1 mm 111.0 W/m2 CLR
16:21 22.9 °C 20.3 °C 1010.7 hPa Calm     85 % 5.1 mm 100.0 W/m2 CLR
16:26 23.0 °C 20.6 °C 1010.4 hPa Calm     86 % 5.1 mm 132.0 W/m2 CLR
16:31 22.9 °C 20.5 °C 1010.4 hPa Calm     86 % 5.1 mm 128.0 W/m2 CLR
16:36 23.1 °C 21.0 °C 1010.4 hPa Calm     88 % 3.8 mm 132.0 W/m2 CLR
16:41 23.1 °C 20.8 °C 1010.4 hPa Calm     87 % 3.8 mm 141.0 W/m2 CLR
16:46 23.2 °C 20.9 °C 1010.4 hPa Calm     87 % 2.5 mm 118.0 W/m2 CLR
16:51 23.2 °C 20.7 °C 1010.4 hPa Calm     86 % 1.3 mm 100.0 W/m2 CLR
16:56 23.2 °C 20.7 °C 1010.4 hPa Calm     86 % 0.3 mm 79.0 W/m2 CLR
17:01 23.2 °C 20.7 °C 1010.7 hPa Calm     86 % 0.5 mm 62.0 W/m2 RA
17:06 23.1 °C 20.7 °C 1010.7 hPa Calm     86 % 0.8 mm 46.0 W/m2 RA
17:11 23.0 °C 20.6 °C 1010.7 hPa Calm     86 % 1.3 mm 42.0 W/m2 RA
17:16 22.9 °C 20.4 °C 1010.7 hPa Calm     86 % 1.8 mm 42.0 W/m2 RA
17:21 22.8 °C 20.6 °C 1010.7 hPa Calm     87 % 2.0 mm 40.0 W/m2 RA
17:26 22.8 °C 20.5 °C 1010.7 hPa Calm     87 % 2.3 mm 46.0 W/m2 RA
17:31 22.8 °C 20.7 °C 1010.7 hPa Calm     88 % 2.3 mm 46.0 W/m2 RA
17:36 22.8 °C 20.7 °C 1010.7 hPa Calm     88 % 2.5 mm 42.0 W/m2 RA
17:41 22.8 °C 20.7 °C 1010.7 hPa Calm     88 % 2.5 mm 44.0 W/m2 BKN
17:46 22.8 °C 20.7 °C 1010.7 hPa Calm     88 % 3.0 mm 49.0 W/m2 RA
17:51 22.8 °C 20.9 °C 1010.7 hPa Calm     89 % 3.3 mm 53.0 W/m2 RA
17:56 22.9 °C 21.0 °C 1010.7 hPa Calm     89 % 3.3 mm 39.0 W/m2 SCT
18:01 22.8 °C 21.1 °C 1010.7 hPa Calm     90 % 3.0 mm 33.0 W/m2 BKN
18:06 22.8 °C 20.9 °C 1010.7 hPa Calm     89 % 2.5 mm 35.0 W/m2 RA
18:11 22.8 °C 21.1 °C 1011.1 hPa Calm     90 % 2.3 mm 32.0 W/m2 BKN
18:16 22.9 °C 21.2 °C 1011.1 hPa Calm     90 % 1.8 mm 49.0 W/m2 RA
18:21 22.8 °C 20.9 °C 1010.7 hPa NNE 8.0 km/h 8.0 km/h 89 % 1.5 mm 72.0 W/m2 SCT
18:26 22.7 °C 20.8 °C 1011.1 hPa Calm     89 % 1.5 mm 81.0 W/m2 RA
18:31 22.6 °C 20.7 °C 1011.1 hPa Calm     89 % 1.5 mm 97.0 W/m2 RA
18:36 22.7 °C 20.8 °C 1010.7 hPa Calm     89 % 1.5 mm 353.0 W/m2 RA
18:41 22.7 °C 20.8 °C 1011.1 hPa Calm     89 % 1.5 mm 123.0 W/m2 CLR
18:46 22.7 °C 20.8 °C 1011.1 hPa Calm     89 % 1.5 mm 120.0 W/m2 RA
18:51 22.8 °C 20.9 °C 1010.7 hPa Calm     89 % 1.5 mm 137.0 W/m2 RA
18:56 22.7 °C 20.8 °C 1010.7 hPa Calm     89 % 1.5 mm 86.0 W/m2 CLR
19:02 22.7 °C 20.8 °C 1011.1 hPa Calm     89 % 1.5 mm 18.0 W/m2 RA
19:07 22.4 °C 20.3 °C 1011.7 hPa West 29.0 km/h 29.0 km/h 88 % 1.5 mm 5.0 W/m2 BKN
19:12 20.7 °C 17.7 °C 1011.7 hPa NW 66.6 km/h 66.6 km/h 83 % 1.5 mm 16.0 W/m2 RA
19:17 18.9 °C 16.9 °C 1012.1 hPa NNW 57.4 km/h 57.4 km/h 88 % 9.9 mm 65.0 W/m2 RA
19:22 18.4 °C 16.6 °C 1012.1 hPa North 44.4 km/h 44.4 km/h 89 % 13.2 mm 213.0 W/m2 RA
19:27 18.3 °C 16.6 °C 1012.4 hPa North 38.9 km/h 38.9 km/h 90 % 14.2 mm 410.0 W/m2 RA
19:32 18.2 °C 16.6 °C 1012.1 hPa NNE 33.3 km/h 33.3 km/h 90 % 14.5 mm 223.0 W/m2 RA
19:37 18.5 °C 16.8 °C 1012.1 hPa NE 31.5 km/h 31.5 km/h 90 % 14.5 mm 218.0 W/m2 CLR
19:42 18.7 °C 16.6 °C 1011.7 hPa North 24.1 km/h 24.1 km/h 88 % 14.5 mm 192.0 W/m2 CLR
19:47 19.0 °C 16.9 °C 1011.7 hPa NE 18.5 km/h 18.5 km/h 88 % 14.2 mm 179.0 W/m2 CLR
19:52 19.0 °C 16.9 °C 1011.7 hPa NNE 18.5 km/h 18.5 km/h 88 % 14.0 mm 146.0 W/m2 CLR
19:57 19.0 °C 17.2 °C 1011.7 hPa Calm     89 % 14.0 mm 100.0 W/m2 CLR
20:02 19.1 °C 17.4 °C 1011.7 hPa Calm     90 % 13.7 mm 90.0 W/m2 CLR
20:07 19.2 °C 17.5 °C 1011.7 hPa Calm     90 % 13.7 mm 56.0 W/m2 CLR
20:12 19.2 °C 17.4 °C 1011.7 hPa Calm     89 % 13.7 mm 37.0 W/m2 FEW
20:17 19.3 °C 17.5 °C 1012.1 hPa Calm     89 % 5.1 mm 26.0 W/m2 BKN
20:22 19.4 °C 17.6 °C 1012.1 hPa Calm     89 % 1.8 mm 30.0 W/m2 BKN
20:27 19.6 °C 17.5 °C 1012.1 hPa South 18.5 km/h 18.5 km/h 88 % 0.5 mm 32.0 W/m2 BKN
20:32 19.5 °C 17.4 °C 1012.1 hPa SSW 11.3 km/h 11.3 km/h 88 % 0.0 mm 26.0 W/m2 BKN
20:37 19.5 °C 17.3 °C 1012.4 hPa SSW 7.4 km/h 7.4 km/h 87 % 0.0 mm 18.0 W/m2 BKN
20:42 19.6 °C 17.3 °C 1012.4 hPa SW 9.3 km/h 9.3 km/h 87 % 0.0 mm 16.0 W/m2 BKN
20:47 19.6 °C 17.4 °C 1012.4 hPa SW 11.1 km/h 11.1 km/h 87 % 0.0 mm 14.0 W/m2 BKN
20:52 19.7 °C 17.6 °C 1012.4 hPa SW 7.4 km/h 7.4 km/h 88 % 0.0 mm 12.0 W/m2 BKN
20:57 19.7 °C 17.6 °C 1012.4 hPa SW 5.6 km/h 5.6 km/h 88 % 0.0 mm 9.0 W/m2 BKN
21:02 19.7 °C 17.6 °C 1012.4 hPa WSW 9.3 km/h 9.3 km/h 88 % 0.0 mm 7.0 W/m2 BKN
21:07 19.6 °C 17.4 °C 1012.4 hPa WSW 14.8 km/h 14.8 km/h 87 % 0.0 mm 5.0 W/m2 OVC
21:12 19.7 °C 17.3 °C 1012.4 hPa WSW 6.4 km/h 8.7 km/h 86 % 0.0 mm 0.0 W/m2 OVC
21:17 19.8 °C 17.4 °C 1012.4 hPa West 11.1 km/h 11.1 km/h 86 % 0.0 mm 0.0 W/m2 OVC
21:22 19.9 °C 17.3 °C 1012.4 hPa WSW 13.0 km/h 13.0 km/h 85 % 0.0 mm 0.0 W/m2 OVC
21:27 19.9 °C 17.6 °C 1012.4 hPa WSW 11.1 km/h 11.1 km/h 86 % 0.0 mm 0.0 W/m2 OVC
21:32 19.9 °C 17.6 °C 1012.4 hPa SW 5.6 km/h 5.8 km/h 86 % 0.0 mm 0.0 W/m2 OVC
21:37 19.9 °C 17.6 °C 1012.8 hPa SW 11.3 km/h 11.3 km/h 86 % 0.0 mm 0.0 W/m2 OVC
21:42 19.9 °C 17.7 °C 1012.8 hPa SW 5.6 km/h   87 % 0.0 mm 0.0 W/m2 OVC
21:47 19.9 °C 17.7 °C 1012.8 hPa Calm     87 % 0.0 mm 0.0 W/m2 CLR
21:52 19.9 °C 17.8 °C 1012.8 hPa Calm     88 % 0.0 mm 0.0 W/m2 CLR
21:57 19.8 °C 17.8 °C 1012.4 hPa Calm     88 % 0.0 mm 0.0 W/m2 CLR
22:02 19.8 °C 17.8 °C 1012.4 hPa Calm     88 % 0.0 mm 0.0 W/m2 CLR
22:07 19.8 °C 17.6 °C 1012.4 hPa Calm     87 % 0.0 mm 0.0 W/m2 CLR
22:12 19.9 °C 17.8 °C 1012.8 hPa Calm     88 % 0.0 mm 0.0 W/m2 CLR
22:17 19.9 °C 17.8 °C 1012.8 hPa Calm     88 % 0.0 mm 0.0 W/m2 CLR
22:22 19.7 °C 17.7 °C 1012.8 hPa Calm     88 % 0.0 mm 0.0 W/m2 CLR
22:27 19.7 °C 17.6 °C 1012.8 hPa Calm     88 % 0.0 mm 0.0 W/m2 CLR
22:32 19.6 °C 17.5 °C 1012.8 hPa Calm     88 % 0.0 mm 0.0 W/m2 CLR
22:37 19.5 °C 17.6 °C 1012.8 hPa Calm     89 % 0.0 mm 0.0 W/m2 CLR
22:42 19.5 °C 17.6 °C 1013.1 hPa Calm     89 % 0.0 mm 0.0 W/m2 CLR
22:47 19.4 °C 17.6 °C 1013.1 hPa Calm     89 % 0.0 mm 0.0 W/m2 CLR
22:52 19.4 °C 17.6 °C 1012.8 hPa Calm     89 % 0.0 mm 0.0 W/m2 CLR
22:53 19.4 °C 17.6 °C 1012.8 hPa Calm     89 % 0.0 mm 0.0 W/m2 CLR
22:58 19.4 °C 17.6 °C 1012.8 hPa Calm     89 % 0.0 mm 0.0 W/m2 CLR
23:03 19.3 °C 17.5 °C 1012.8 hPa Calm     89 % 0.0 mm 0.0 W/m2 CLR
23:08 19.3 °C 17.5 °C 1012.8 hPa Calm     89 % 0.0 mm 0.0 W/m2 CLR
23:13 19.3 °C 17.5 °C 1013.1 hPa Calm     89 % 0.0 mm 0.0 W/m2 CLR
23:18 19.3 °C 17.4 °C 1013.1 hPa Calm     89 % 0.0 mm 0.0 W/m2 CLR
23:23 19.3 °C 17.2 °C 1013.1 hPa Calm     88 % 0.0 mm 0.0 W/m2 CLR
23:28 19.3 °C 17.4 °C 1013.1 hPa Calm     89 % 0.0 mm 0.0 W/m2 CLR
23:33 19.3 °C 17.5 °C 1012.8 hPa Calm     89 % 0.0 mm 0.0 W/m2 CLR
23:38 19.3 °C 17.4 °C 1012.8 hPa Calm     89 % 0.0 mm 0.0 W/m2 CLR
23:43 19.1 °C 17.3 °C 1013.1 hPa Calm     89 % 0.0 mm 0.0 W/m2 CLR
23:48 19.1 °C 17.3 °C 1012.8 hPa Calm     89 % 0.0 mm 0.0 W/m2 CLR
23:53 19.1 °C 17.2 °C 1012.8 hPa Calm     89 % 0.0 mm 0.0 W/m2 CLR
23:58 19.1 °C 17.4 °C 1012.8 hPa Calm     90 % 0.0 mm 0.0 W/m2 CLR
Lo Temps de Massalio
Compliments of Weather Underground - 1.25 mb